createdAt,value
2017-07-18T00:01:08.584Z,92.10
2017-07-18T00:03:36.133Z,92.10
2017-07-18T00:06:03.710Z,92.00
2017-07-18T00:08:31.346Z,92.00
2017-07-18T00:10:58.915Z,91.90
2017-07-18T00:13:26.507Z,91.80
2017-07-18T00:15:54.858Z,92.50
2017-07-18T00:18:22.440Z,92.40
2017-07-18T00:20:50.006Z,92.60
2017-07-18T00:23:18.337Z,93.00
2017-07-18T00:25:45.894Z,92.60
2017-07-18T00:28:13.475Z,92.40
2017-07-18T00:30:41.055Z,92.60
2017-07-18T00:33:08.621Z,92.60
2017-07-18T00:35:36.218Z,92.80
2017-07-18T00:38:03.790Z,92.80
2017-07-18T00:40:31.375Z,92.80
2017-07-18T00:42:58.986Z,92.80
2017-07-18T00:45:26.574Z,92.90
2017-07-18T00:47:54.144Z,93.00
2017-07-18T00:50:21.754Z,92.80
2017-07-18T00:52:49.334Z,92.80
2017-07-18T00:55:17.660Z,93.00
2017-07-18T00:57:45.209Z,93.00
2017-07-18T01:00:12.778Z,93.00
2017-07-18T01:02:40.342Z,93.20
2017-07-18T01:05:07.927Z,93.30
2017-07-18T01:07:35.530Z,93.30
2017-07-18T01:10:03.103Z,93.30
2017-07-18T01:12:30.691Z,93.40
2017-07-18T01:14:58.253Z,93.30
2017-07-18T01:17:25.818Z,93.50
2017-07-18T01:19:53.411Z,93.40
2017-07-18T01:22:21.810Z,93.80
2017-07-18T01:24:49.391Z,93.80
2017-07-18T01:27:16.980Z,93.70
2017-07-18T01:29:44.545Z,93.90
2017-07-18T01:32:12.128Z,94.00
2017-07-18T01:34:40.482Z,93.80
2017-07-18T01:37:08.066Z,93.80
2017-07-18T01:39:36.395Z,93.90
2017-07-18T01:42:03.978Z,93.90
2017-07-18T01:44:31.571Z,94.00
2017-07-18T01:46:59.895Z,93.90
2017-07-18T01:49:27.455Z,93.90
2017-07-18T01:51:55.027Z,94.20
2017-07-18T01:54:22.623Z,94.00
2017-07-18T01:56:50.196Z,94.20
2017-07-18T01:59:18.509Z,94.10
2017-07-18T02:01:46.061Z,94.00
2017-07-18T02:04:13.645Z,94.30
2017-07-18T02:06:41.203Z,94.30
2017-07-18T02:09:08.761Z,94.10
2017-07-18T02:11:36.360Z,94.20
2017-07-18T02:14:03.928Z,94.50
2017-07-18T02:16:31.759Z,94.50
2017-07-18T02:18:59.324Z,94.60
2017-07-18T02:21:26.882Z,94.50
2017-07-18T02:23:54.481Z,94.40
2017-07-18T02:26:22.806Z,94.70
2017-07-18T02:28:50.365Z,94.70
2017-07-18T02:31:17.942Z,94.40
2017-07-18T02:33:45.529Z,94.40
2017-07-18T02:36:13.100Z,94.40
2017-07-18T02:38:40.709Z,94.30
2017-07-18T02:41:08.311Z,94.80
2017-07-18T02:43:35.879Z,95.10
2017-07-18T02:46:03.448Z,94.80
2017-07-18T02:48:31.795Z,94.80
2017-07-18T02:50:59.439Z,94.70
2017-07-18T02:53:27.003Z,94.70
2017-07-18T02:55:54.582Z,94.70
2017-07-18T02:58:23.307Z,94.80
2017-07-18T03:00:51.645Z,94.60
2017-07-18T03:03:19.226Z,94.50
2017-07-18T03:05:46.935Z,94.50
2017-07-18T03:08:14.518Z,95.00
2017-07-18T03:10:42.270Z,94.60
2017-07-18T03:13:09.894Z,94.80
2017-07-18T03:15:38.223Z,94.50
2017-07-18T03:18:05.782Z,94.50
2017-07-18T03:20:33.486Z,94.90
2017-07-18T03:23:01.049Z,94.50
2017-07-18T03:25:28.609Z,94.50
2017-07-18T03:27:56.973Z,94.60
2017-07-18T03:30:24.538Z,94.60
2017-07-18T03:32:52.099Z,94.90
2017-07-18T03:35:19.692Z,95.00
2017-07-18T03:37:47.268Z,94.80
2017-07-18T03:40:14.824Z,94.90
2017-07-18T03:42:42.392Z,95.00
2017-07-18T03:45:10.005Z,94.90
2017-07-18T03:47:37.556Z,94.90
2017-07-18T03:50:05.134Z,94.90
2017-07-18T03:52:32.706Z,94.90
2017-07-18T03:55:00.283Z,95.00
2017-07-18T03:57:27.931Z,95.00
2017-07-18T03:59:56.262Z,95.30
2017-07-18T04:02:23.850Z,95.30
2017-07-18T04:04:51.415Z,95.20
2017-07-18T04:07:18.978Z,95.20
2017-07-18T04:09:46.556Z,95.20
2017-07-18T04:12:14.112Z,95.40
2017-07-18T04:14:42.434Z,99.70
2017-07-18T04:17:10.119Z,99.30
2017-07-18T04:19:37.685Z,99.90
2017-07-18T04:22:05.247Z,95.90
2017-07-18T04:24:32.837Z,91.50
2017-07-18T04:27:01.155Z,78.10
2017-07-18T04:29:28.717Z,78.10
2017-07-18T04:31:56.305Z,77.10
2017-07-18T04:34:23.966Z,72.60
2017-07-18T04:36:51.626Z,68.30
2017-07-18T04:39:19.214Z,64.90
2017-07-18T04:41:46.790Z,60.60
2017-07-18T04:44:14.364Z,58.60
2017-07-18T04:46:41.932Z,56.90
2017-07-18T04:49:09.516Z,54.60
2017-07-18T04:51:37.088Z,53.60
2017-07-18T04:54:04.657Z,53.70
2017-07-18T04:56:32.328Z,52.30
2017-07-18T04:58:59.897Z,53.80
2017-07-18T05:01:27.451Z,52.10
2017-07-18T05:03:55.102Z,49.80
2017-07-18T05:06:22.671Z,48.60
2017-07-18T05:08:50.243Z,45.90
2017-07-18T05:11:17.830Z,44.60
2017-07-18T05:13:46.145Z,44.20
2017-07-18T05:16:13.759Z,44.10
2017-07-18T05:18:42.103Z,43.80
2017-07-18T05:21:09.661Z,43.60
2017-07-18T05:23:37.265Z,42.80
2017-07-18T05:26:04.858Z,43.30
2017-07-18T05:28:33.135Z,43.30
2017-07-18T05:31:00.693Z,41.30
2017-07-18T05:33:28.290Z,40.40
2017-07-18T05:35:55.845Z,38.60
2017-07-18T05:38:23.445Z,41.00
2017-07-18T05:40:51.769Z,38.40
2017-07-18T05:43:19.431Z,38.30
2017-07-18T05:45:47.006Z,38.90
2017-07-18T05:48:14.593Z,38.70
2017-07-18T05:50:42.159Z,38.30
2017-07-18T05:53:09.738Z,37.90
2017-07-18T05:55:38.058Z,37.40
2017-07-18T05:58:05.618Z,37.50
2017-07-18T06:00:33.350Z,38.00
2017-07-18T06:03:00.951Z,35.00
2017-07-18T06:05:28.505Z,33.80
2017-07-18T06:07:56.112Z,35.20
2017-07-18T06:10:23.682Z,34.90
2017-07-18T06:12:52.003Z,35.60
2017-07-18T06:15:19.583Z,35.60
2017-07-18T06:17:47.271Z,37.30
2017-07-18T06:20:14.830Z,39.90
2017-07-18T06:22:42.398Z,40.10
2017-07-18T06:25:10.747Z,39.60
2017-07-18T06:27:38.297Z,38.90
2017-07-18T06:30:05.888Z,36.50
2017-07-18T06:32:33.468Z,36.20
2017-07-18T06:35:01.827Z,34.90
2017-07-18T06:37:29.399Z,34.90
2017-07-18T06:39:57.731Z,34.80
2017-07-18T06:42:25.302Z,34.70
2017-07-18T06:44:53.694Z,34.90
2017-07-18T06:47:21.270Z,35.40
2017-07-18T06:49:48.845Z,34.20
2017-07-18T06:52:17.167Z,31.50
2017-07-18T06:54:44.773Z,31.40
2017-07-18T06:57:12.330Z,31.60
2017-07-18T06:59:39.899Z,30.70
2017-07-18T07:02:07.470Z,31.40
2017-07-18T07:04:36.410Z,30.80
2017-07-18T07:07:04.268Z,30.70
2017-07-18T07:09:31.829Z,31.40
2017-07-18T07:11:59.402Z,32.30
2017-07-18T07:14:27.006Z,29.60
2017-07-18T07:16:55.431Z,27.40
2017-07-18T07:19:23.019Z,27.30
2017-07-18T07:21:50.678Z,27.90
2017-07-18T07:24:18.254Z,28.80
2017-07-18T07:26:45.826Z,29.70
2017-07-18T07:29:13.378Z,29.70
2017-07-18T07:31:40.961Z,29.50
2017-07-18T07:34:08.538Z,29.40
2017-07-18T07:36:36.141Z,29.40
2017-07-18T07:39:03.691Z,30.80
2017-07-18T07:41:31.250Z,31.80
2017-07-18T07:43:58.864Z,30.00
2017-07-18T07:46:27.183Z,30.80
2017-07-18T07:48:54.898Z,30.80
2017-07-18T07:51:22.474Z,31.10
2017-07-18T07:53:50.047Z,31.30
2017-07-18T07:56:17.655Z,31.00
2017-07-18T07:58:45.217Z,30.00
2017-07-18T08:01:12.814Z,30.00
2017-07-18T08:03:41.157Z,31.10
2017-07-18T08:06:08.746Z,31.00
2017-07-18T08:08:36.290Z,31.10
2017-07-18T08:11:03.864Z,31.60
2017-07-18T08:13:31.811Z,30.00
2017-07-18T08:15:59.397Z,31.10
2017-07-18T08:18:26.954Z,30.20
2017-07-18T08:20:54.706Z,31.60
2017-07-18T08:23:22.265Z,29.90
2017-07-18T08:25:49.822Z,29.80
2017-07-18T08:28:18.377Z,29.60
2017-07-18T08:30:45.941Z,30.00
2017-07-18T08:33:13.489Z,30.00
2017-07-18T08:35:41.202Z,29.90
2017-07-18T08:38:08.758Z,30.50
2017-07-18T08:40:36.403Z,30.40
2017-07-18T08:43:03.957Z,29.50
2017-07-18T08:45:31.550Z,30.10
2017-07-18T08:47:59.115Z,31.10
2017-07-18T08:50:26.691Z,32.30
2017-07-18T08:52:54.300Z,31.00
2017-07-18T08:55:21.850Z,30.60
2017-07-18T08:57:49.445Z,30.30
2017-07-18T09:00:17.967Z,29.50
2017-07-18T09:02:45.524Z,30.50
2017-07-18T09:05:13.098Z,32.60
2017-07-18T09:07:40.645Z,28.80
2017-07-18T09:10:08.205Z,29.80
2017-07-18T09:12:35.862Z,29.80
2017-07-18T09:15:03.431Z,29.80
2017-07-18T09:17:30.981Z,29.60
2017-07-18T09:19:58.574Z,29.20
2017-07-18T09:22:26.135Z,29.40
2017-07-18T09:24:53.741Z,29.70
2017-07-18T09:27:21.301Z,29.20
2017-07-18T09:29:48.859Z,28.80
2017-07-18T09:32:16.458Z,29.60
2017-07-18T09:34:44.790Z,32.60
2017-07-18T09:37:12.346Z,32.40
2017-07-18T09:39:39.943Z,31.50
2017-07-18T09:42:08.278Z,30.40
2017-07-18T09:44:35.832Z,30.30
2017-07-18T09:47:03.407Z,29.40
2017-07-18T09:49:30.971Z,29.90
2017-07-18T09:51:58.558Z,28.60
2017-07-18T09:54:26.121Z,29.30
2017-07-18T09:56:53.659Z,29.30
2017-07-18T09:59:22.088Z,29.90
2017-07-18T10:01:50.594Z,31.30
2017-07-18T10:04:18.157Z,30.70
2017-07-18T10:06:45.741Z,30.80
2017-07-18T10:09:13.736Z,30.40
2017-07-18T10:11:41.742Z,30.00
2017-07-18T10:14:09.319Z,29.10
2017-07-18T10:16:36.878Z,29.90
2017-07-18T10:19:04.485Z,29.50
2017-07-18T10:21:32.043Z,30.00
2017-07-18T10:23:59.615Z,29.60
2017-07-18T10:26:27.958Z,31.70
2017-07-18T10:28:55.541Z,31.00
2017-07-18T10:31:23.106Z,30.80
2017-07-18T10:33:50.676Z,31.80
2017-07-18T10:36:18.238Z,32.10
2017-07-18T10:38:45.795Z,29.90
2017-07-18T10:41:13.367Z,31.60
2017-07-18T10:43:41.736Z,29.10
2017-07-18T10:46:09.307Z,29.10
2017-07-18T10:48:37.643Z,32.60
2017-07-18T10:51:05.230Z,32.50
2017-07-18T10:53:32.810Z,31.60
2017-07-18T10:56:02.658Z,31.70
2017-07-18T10:58:30.234Z,31.00
2017-07-18T11:00:57.821Z,31.40
2017-07-18T11:03:26.049Z,30.80
2017-07-18T11:05:53.619Z,32.30
2017-07-18T11:08:21.209Z,32.40
2017-07-18T11:10:48.865Z,34.10
2017-07-18T11:13:16.443Z,32.80
2017-07-18T11:15:44.043Z,32.50
2017-07-18T11:18:11.862Z,34.20
2017-07-18T11:20:39.458Z,34.60
2017-07-18T11:23:07.795Z,34.50
2017-07-18T11:25:35.344Z,34.60
2017-07-18T11:28:02.942Z,34.10
2017-07-18T11:30:31.225Z,34.30
2017-07-18T11:32:59.586Z,35.10
2017-07-18T11:35:27.287Z,34.70
2017-07-18T11:37:55.910Z,35.10
2017-07-18T11:40:23.538Z,35.00
2017-07-18T11:42:51.106Z,34.00
2017-07-18T11:45:18.691Z,37.60
2017-07-18T11:47:46.277Z,33.40
2017-07-18T11:50:13.835Z,34.10
2017-07-18T11:52:41.394Z,35.00
2017-07-18T11:55:08.979Z,36.20
2017-07-18T11:57:40.686Z,39.30
2017-07-18T12:00:08.307Z,37.60
2017-07-18T12:02:36.694Z,37.00
2017-07-18T12:05:05.030Z,37.80
2017-07-18T12:07:32.793Z,37.90
2017-07-18T12:10:01.252Z,37.80
2017-07-18T12:12:28.848Z,38.30
2017-07-18T12:14:56.450Z,37.60
2017-07-18T12:17:24.758Z,37.10
2017-07-18T12:19:52.349Z,38.60
2017-07-18T12:22:19.912Z,36.40
2017-07-18T12:24:47.493Z,37.80
2017-07-18T12:27:15.834Z,39.20
2017-07-18T12:29:43.402Z,38.40
2017-07-18T12:32:11.622Z,37.00
2017-07-18T12:34:39.981Z,39.20
2017-07-18T12:37:07.528Z,39.20
2017-07-18T12:39:35.094Z,38.10
2017-07-18T12:42:02.758Z,38.10
2017-07-18T12:44:30.322Z,38.50
2017-07-18T12:46:57.882Z,37.80
2017-07-18T12:49:25.471Z,39.20
2017-07-18T12:51:53.866Z,38.30
2017-07-18T12:54:21.459Z,38.30
2017-07-18T12:56:49.050Z,38.50
2017-07-18T12:59:16.651Z,37.10
2017-07-18T13:01:44.254Z,38.80
2017-07-18T13:04:11.821Z,40.30
2017-07-18T13:06:39.390Z,39.30
2017-07-18T13:09:07.615Z,39.60
2017-07-18T13:11:35.173Z,39.20
2017-07-18T13:14:03.126Z,41.30
2017-07-18T13:16:31.487Z,39.40
2017-07-18T13:18:59.046Z,39.40
2017-07-18T13:21:26.606Z,39.40
2017-07-18T13:23:54.269Z,38.90
2017-07-18T13:26:21.826Z,40.40
2017-07-18T13:28:49.407Z,39.40
2017-07-18T13:31:17.743Z,38.60
2017-07-18T13:33:45.340Z,39.10
2017-07-18T13:36:12.891Z,37.70
2017-07-18T13:38:40.478Z,38.70
2017-07-18T13:41:08.807Z,38.40
2017-07-18T13:43:36.447Z,38.40
2017-07-18T13:46:04.633Z,39.10
2017-07-18T13:48:32.182Z,38.90
2017-07-18T13:50:59.758Z,39.60
2017-07-18T13:53:27.346Z,39.50
2017-07-18T13:55:54.933Z,38.90
2017-07-18T13:58:22.505Z,39.40
2017-07-18T14:00:50.073Z,38.30
2017-07-18T14:03:17.761Z,40.20
2017-07-18T14:05:45.410Z,38.70
2017-07-18T14:08:12.985Z,38.70
2017-07-18T14:10:41.481Z,39.90
2017-07-18T14:13:09.042Z,39.60
2017-07-18T14:15:37.565Z,39.80
2017-07-18T14:18:05.906Z,39.80
2017-07-18T14:20:33.474Z,39.70
2017-07-18T14:23:01.064Z,40.20
2017-07-18T14:25:29.441Z,40.30
2017-07-18T14:27:57.821Z,39.90
2017-07-18T14:30:26.202Z,40.60
2017-07-18T14:32:54.524Z,41.00
2017-07-18T14:35:22.091Z,41.10
2017-07-18T14:37:49.688Z,39.70
2017-07-18T14:40:18.065Z,42.00
2017-07-18T14:42:45.644Z,41.80
2017-07-18T14:45:14.001Z,39.70
2017-07-18T14:47:41.601Z,39.70
2017-07-18T14:50:09.199Z,40.40
2017-07-18T14:52:36.755Z,39.70
2017-07-18T14:55:04.348Z,40.00
2017-07-18T14:57:31.901Z,40.60
2017-07-18T14:59:59.502Z,41.90
2017-07-18T15:02:27.064Z,40.70
2017-07-18T15:04:55.001Z,41.20
2017-07-18T15:07:23.127Z,40.90
2017-07-18T15:09:50.677Z,40.50
2017-07-18T15:12:18.261Z,40.90
2017-07-18T15:14:45.852Z,40.90
2017-07-18T15:17:13.431Z,41.20
2017-07-18T15:19:41.766Z,40.30
2017-07-18T15:22:09.338Z,40.30
2017-07-18T15:24:36.955Z,40.80
2017-07-18T15:27:05.298Z,40.20
2017-07-18T15:29:32.886Z,40.20
2017-07-18T15:32:01.214Z,40.90
2017-07-18T15:34:28.793Z,40.90
2017-07-18T15:36:56.437Z,40.60
2017-07-18T15:39:24.037Z,40.50
2017-07-18T15:41:52.376Z,42.30
2017-07-18T15:44:19.956Z,42.80
2017-07-18T15:46:47.548Z,41.20
2017-07-18T15:49:15.899Z,40.80
2017-07-18T15:51:44.197Z,40.70
2017-07-18T15:54:11.781Z,40.80
2017-07-18T15:56:40.325Z,41.70
2017-07-18T15:59:07.896Z,41.40
2017-07-18T16:01:35.503Z,41.70
2017-07-18T16:04:03.059Z,41.60
2017-07-18T16:06:30.654Z,42.20
2017-07-18T16:08:58.257Z,41.20
2017-07-18T16:11:26.583Z,42.90
2017-07-18T16:13:54.157Z,43.00
2017-07-18T16:16:22.346Z,41.70
2017-07-18T16:18:49.905Z,41.80
2017-07-18T16:21:17.490Z,42.10
2017-07-18T16:23:46.613Z,42.80
2017-07-18T16:26:14.190Z,42.70
2017-07-18T16:28:41.770Z,42.40
2017-07-18T16:31:09.367Z,42.70
2017-07-18T16:33:37.688Z,42.70
2017-07-18T16:36:05.265Z,42.20
2017-07-18T16:38:32.895Z,42.50
2017-07-18T16:41:00.501Z,42.50
2017-07-18T16:43:28.089Z,42.50
2017-07-18T16:45:55.674Z,42.00
2017-07-18T16:48:24.163Z,42.10
2017-07-18T16:50:52.518Z,43.40
2017-07-18T16:53:20.969Z,42.30
2017-07-18T16:55:48.548Z,42.10
2017-07-18T16:58:16.157Z,42.10
2017-07-18T17:00:43.734Z,42.30
2017-07-18T17:03:11.333Z,42.80
2017-07-18T17:05:39.762Z,43.00
2017-07-18T17:08:07.354Z,42.90
2017-07-18T17:10:35.494Z,42.90
2017-07-18T17:13:03.166Z,42.40
2017-07-18T17:15:30.753Z,43.30
2017-07-18T17:17:58.308Z,42.70
2017-07-18T17:20:26.122Z,43.90
2017-07-18T17:22:53.718Z,43.20
2017-07-18T17:25:21.289Z,43.10
2017-07-18T17:27:48.852Z,43.00
2017-07-18T17:30:16.467Z,43.30
2017-07-18T17:32:44.793Z,44.10
2017-07-18T17:35:12.375Z,44.10
2017-07-18T17:37:40.826Z,43.70
2017-07-18T17:40:08.393Z,43.90
2017-07-18T17:42:36.004Z,44.10
2017-07-18T17:45:03.600Z,43.80
2017-07-18T17:47:31.165Z,43.10
2017-07-18T17:49:58.770Z,44.10
2017-07-18T17:52:26.362Z,44.00
2017-07-18T17:54:53.947Z,44.10
2017-07-18T17:57:21.572Z,44.60
2017-07-18T17:59:49.905Z,44.10
2017-07-18T18:02:17.477Z,44.60
2017-07-18T18:04:45.096Z,44.20
2017-07-18T18:07:12.651Z,45.70
2017-07-18T18:09:40.246Z,45.30
2017-07-18T18:12:07.802Z,45.40
2017-07-18T18:14:35.373Z,45.30
2017-07-18T18:17:02.972Z,45.50
2017-07-18T18:19:31.305Z,46.20
2017-07-18T18:21:58.871Z,46.00
2017-07-18T18:24:26.462Z,45.60
2017-07-18T18:26:54.102Z,46.70
2017-07-18T18:29:21.698Z,46.30
2017-07-18T18:31:49.266Z,46.90
2017-07-18T18:34:17.690Z,47.30
2017-07-18T18:36:45.278Z,47.30
2017-07-18T18:39:12.922Z,46.60
2017-07-18T18:41:40.500Z,47.20
2017-07-18T18:44:08.093Z,46.80
2017-07-18T18:46:36.433Z,47.90
2017-07-18T18:49:04.027Z,47.80
2017-07-18T18:51:32.343Z,48.00
2017-07-18T18:53:59.918Z,48.00
2017-07-18T18:56:27.523Z,48.20
2017-07-18T18:58:55.877Z,48.70
2017-07-18T19:01:23.486Z,48.60
2017-07-18T19:03:51.084Z,49.20
2017-07-18T19:06:18.683Z,49.60
2017-07-18T19:08:46.265Z,49.60
2017-07-18T19:11:13.813Z,50.20
2017-07-18T19:13:42.180Z,51.10
2017-07-18T19:16:09.749Z,51.00
2017-07-18T19:18:37.338Z,50.80
2017-07-18T19:21:04.986Z,51.30
2017-07-18T19:23:33.335Z,51.60
2017-07-18T19:26:00.935Z,51.60
2017-07-18T19:28:28.536Z,52.00
2017-07-18T19:30:56.116Z,52.20
2017-07-18T19:33:23.681Z,52.00
2017-07-18T19:35:51.302Z,52.90
2017-07-18T19:38:18.893Z,52.90
2017-07-18T19:40:46.462Z,53.50
2017-07-18T19:43:14.030Z,53.60
2017-07-18T19:45:41.593Z,54.00
2017-07-18T19:48:09.188Z,54.00
2017-07-18T19:50:36.764Z,54.40
2017-07-18T19:53:04.346Z,54.80
2017-07-18T19:55:31.974Z,55.90
2017-07-18T19:57:59.542Z,55.60
2017-07-18T20:00:27.154Z,55.40
2017-07-18T20:02:54.734Z,55.90
2017-07-18T20:05:23.043Z,56.40
2017-07-18T20:07:50.694Z,56.30
2017-07-18T20:10:18.277Z,56.80
2017-07-18T20:12:45.866Z,56.90
2017-07-18T20:15:13.438Z,57.00
2017-07-18T20:17:41.040Z,57.50
2017-07-18T20:20:08.644Z,57.90
2017-07-18T20:22:36.201Z,58.10
2017-07-18T20:25:03.772Z,58.40
2017-07-18T20:27:31.341Z,58.20
2017-07-18T20:29:58.941Z,58.90
2017-07-18T20:32:27.272Z,59.20
2017-07-18T20:34:54.846Z,59.10
2017-07-18T20:37:22.443Z,59.70
2017-07-18T20:39:50.798Z,59.40
2017-07-18T20:42:18.345Z,59.40
2017-07-18T20:44:45.919Z,59.80
2017-07-18T20:47:13.498Z,59.70
2017-07-18T20:49:42.010Z,60.00
2017-07-18T20:52:09.580Z,60.00
2017-07-18T20:54:37.165Z,60.40
2017-07-18T20:57:04.713Z,60.30
2017-07-18T20:59:32.289Z,60.50
2017-07-18T21:01:59.870Z,60.70
2017-07-18T21:04:27.458Z,60.60
2017-07-18T21:06:55.070Z,61.90
2017-07-18T21:09:22.664Z,61.20
2017-07-18T21:11:50.229Z,61.90
2017-07-18T21:14:18.599Z,61.80
2017-07-18T21:16:46.166Z,61.70
2017-07-18T21:19:13.754Z,62.10
2017-07-18T21:21:41.369Z,62.70
2017-07-18T21:24:08.974Z,63.10
2017-07-18T21:26:36.602Z,63.60
2017-07-18T21:29:04.175Z,64.60
2017-07-18T21:31:31.743Z,64.70
2017-07-18T21:34:00.109Z,65.80
2017-07-18T21:36:27.677Z,65.70
2017-07-18T21:38:55.263Z,66.30
2017-07-18T21:41:22.851Z,66.90
2017-07-18T21:43:50.418Z,66.70
2017-07-18T21:46:17.991Z,67.30
2017-07-18T21:48:45.590Z,67.40
2017-07-18T21:51:13.124Z,68.30
2017-07-18T21:53:40.706Z,68.00
2017-07-18T21:56:09.045Z,68.20
2017-07-18T21:58:36.615Z,68.20
2017-07-18T22:01:04.323Z,68.60
2017-07-18T22:03:31.894Z,69.00
2017-07-18T22:05:59.490Z,69.20
2017-07-18T22:08:27.063Z,69.80
2017-07-18T22:10:54.687Z,69.90
2017-07-18T22:13:22.266Z,70.70
2017-07-18T22:15:49.826Z,70.10
2017-07-18T22:18:17.410Z,70.50
2017-07-18T22:20:44.990Z,70.80
2017-07-18T22:23:12.550Z,71.20
2017-07-18T22:25:40.896Z,70.50
2017-07-18T22:28:08.463Z,70.50
2017-07-18T22:30:36.050Z,72.00
2017-07-18T22:33:03.639Z,71.70
2017-07-18T22:35:31.217Z,71.50
2017-07-18T22:37:58.791Z,72.60
2017-07-18T22:40:26.342Z,73.40
2017-07-18T22:42:53.927Z,73.50
2017-07-18T22:45:21.488Z,73.60
2017-07-18T22:47:49.057Z,73.80
2017-07-18T22:50:16.627Z,73.80
2017-07-18T22:52:44.670Z,73.60
2017-07-18T22:55:13.635Z,74.20
2017-07-18T22:57:41.231Z,74.70
2017-07-18T23:00:08.771Z,74.90
2017-07-18T23:02:36.378Z,75.40
2017-07-18T23:05:04.722Z,77.20
2017-07-18T23:07:32.429Z,76.50
2017-07-18T23:10:00.765Z,76.10
2017-07-18T23:12:28.329Z,76.00
2017-07-18T23:14:55.930Z,77.10
2017-07-18T23:17:23.563Z,76.50
2017-07-18T23:19:51.202Z,77.50
2017-07-18T23:22:18.798Z,77.50
2017-07-18T23:24:46.358Z,77.10
2017-07-18T23:27:13.986Z,76.40
2017-07-18T23:29:41.555Z,76.10
2017-07-18T23:32:09.109Z,75.90
2017-07-18T23:34:36.697Z,76.50
2017-07-18T23:37:04.262Z,77.20
2017-07-18T23:39:31.847Z,77.10
2017-07-18T23:42:00.186Z,77.80
2017-07-18T23:44:27.749Z,77.80
2017-07-18T23:46:55.381Z,78.40
2017-07-18T23:49:22.943Z,78.30
2017-07-18T23:51:50.497Z,78.40
2017-07-18T23:54:18.093Z,78.90
2017-07-18T23:56:45.665Z,78.70
2017-07-18T23:59:14.054Z,78.90
